Mahlon Sweet Field Eugene US
ICAO: KEUG
IATA: EUG
Category: Medium
Scheduled Services: Yes

Elevation: 374 ft
TransAlt. 18000 ft.

Airport Communications:
CASCADE APP/DEP:119.6
ATIS:125.225
EUGENE CLNC DEL:121.7
CTAF:118.9
GND:121.7
MC MINNVILLE RDO:122.3
EUGENE TWR:118.9
UNICOM:122.95

KEUG Zoom In..

Runways:

(A) RW 16L length 6000 ft width 150 ft
ILS 111.75 / hdg 163

(B) RW 16R length 8009 ft width 150 ft
ILS 110.10 / hdg 163

(C) RW 34L length 8009 ft width 150 ft
---- / hdg 343

(D) RW 34R length 6000 ft width 150 ft
---- / hdg 343

Location; KEUG
Day. 15 / Time. 21.54 Zulu
* Altimeter: 29.95
* Temperature: 34° c. 93.2°f.
* Wind from: 300° Speed 04 kn.
Dewpoint: 10° c.
Visibility: 10 Statute Miles.
Clouds: Few 8000 ft.
Clouds: Few 15000 ft.
Clouds: Scattered 22000 ft.
Clouds: Broken 26000 ft.
Conditions: Cumulonimbus.Conditions: Towering CB.

KEUG 152154Z 30004KT 10SM FEW080 FEW150 SCT220 BKN260 34/10 A2995 RMK AO2 SLP138 CB DSNT E TCU DSNT SE-S AND SW T03390100


Wind From 300°
Speed 04 kn.

 
 
jpsmedia.com for Web Design worldairports.se 2018   terms of use